sensor_id;sensor_type;location;lat;lon;timestamp;P1;durP1;ratioP1;P2;durP2;ratioP2
19664;SDS011;9980;51.020;7.772;2022-08-30T00:01:31;2.00;;;1.90;;
19664;SDS011;9980;51.020;7.772;2022-08-30T00:03:59;2.43;;;2.10;;
19664;SDS011;9980;51.020;7.772;2022-08-30T00:06:28;2.50;;;2.30;;
19664;SDS011;9980;51.020;7.772;2022-08-30T00:08:55;2.83;;;2.60;;
19664;SDS011;9980;51.020;7.772;2022-08-30T00:11:24;9.53;;;3.27;;
19664;SDS011;9980;51.020;7.772;2022-08-30T00:13:53;5.20;;;3.03;;
19664;SDS011;9980;51.020;7.772;2022-08-30T00:16:22;4.07;;;2.27;;
19664;SDS011;9980;51.020;7.772;2022-08-30T00:18:51;2.63;;;2.20;;
19664;SDS011;9980;51.020;7.772;2022-08-30T00:21:19;3.73;;;2.63;;
19664;SDS011;9980;51.020;7.772;2022-08-30T00:23:47;9.70;;;4.10;;
19664;SDS011;9980;51.020;7.772;2022-08-30T00:26:14;9.97;;;4.30;;
19664;SDS011;9980;51.020;7.772;2022-08-30T00:28:41;3.37;;;3.07;;
19664;SDS011;9980;51.020;7.772;2022-08-30T00:31:08;3.83;;;3.50;;
19664;SDS011;9980;51.020;7.772;2022-08-30T00:33:40;3.07;;;2.77;;
19664;SDS011;9980;51.020;7.772;2022-08-30T00:36:07;4.20;;;2.60;;
19664;SDS011;9980;51.020;7.772;2022-08-30T00:38:34;2.57;;;2.13;;
19664;SDS011;9980;51.020;7.772;2022-08-30T00:41:02;3.17;;;2.87;;
19664;SDS011;9980;51.020;7.772;2022-08-30T00:43:30;3.00;;;2.50;;
19664;SDS011;9980;51.020;7.772;2022-08-30T00:46:02;2.30;;;2.10;;
19664;SDS011;9980;51.020;7.772;2022-08-30T00:48:35;3.70;;;2.53;;
19664;SDS011;9980;51.020;7.772;2022-08-30T00:51:07;3.93;;;3.13;;
19664;SDS011;9980;51.020;7.772;2022-08-30T00:53:39;3.60;;;3.30;;
19664;SDS011;9980;51.020;7.772;2022-08-30T00:56:11;3.97;;;3.20;;
19664;SDS011;9980;51.020;7.772;2022-08-30T00:58:41;3.50;;;3.20;;
19664;SDS011;9980;51.020;7.772;2022-08-30T01:01:15;5.27;;;4.03;;
19664;SDS011;9980;51.020;7.772;2022-08-30T01:03:43;3.30;;;3.00;;
19664;SDS011;9980;51.020;7.772;2022-08-30T01:06:12;5.17;;;3.30;;
19664;SDS011;9980;51.020;7.772;2022-08-30T01:08:41;3.30;;;2.83;;
19664;SDS011;9980;51.020;7.772;2022-08-30T01:11:10;4.80;;;2.90;;
19664;SDS011;9980;51.020;7.772;2022-08-30T01:13:42;3.20;;;2.67;;
19664;SDS011;9980;51.020;7.772;2022-08-30T01:16:12;3.03;;;2.70;;
19664;SDS011;9980;51.020;7.772;2022-08-30T01:18:40;3.30;;;2.67;;
19664;SDS011;9980;51.020;7.772;2022-08-30T01:21:16;3.90;;;2.80;;
19664;SDS011;9980;51.020;7.772;2022-08-30T01:23:48;3.70;;;3.33;;
19664;SDS011;9980;51.020;7.772;2022-08-30T01:26:21;3.17;;;2.87;;
19664;SDS011;9980;51.020;7.772;2022-08-30T01:28:51;7.57;;;3.40;;
19664;SDS011;9980;51.020;7.772;2022-08-30T01:36:07;4.20;;;3.03;;
19664;SDS011;9980;51.020;7.772;2022-08-30T01:38:48;4.63;;;3.97;;
19664;SDS011;9980;51.020;7.772;2022-08-30T01:41:20;4.53;;;3.63;;
19664;SDS011;9980;51.020;7.772;2022-08-30T01:43:55;5.33;;;2.70;;
19664;SDS011;9980;51.020;7.772;2022-08-30T01:46:27;7.53;;;3.87;;
19664;SDS011;9980;51.020;7.772;2022-08-30T01:49:02;7.23;;;4.50;;
19664;SDS011;9980;51.020;7.772;2022-08-30T01:51:34;8.77;;;4.53;;
19664;SDS011;9980;51.020;7.772;2022-08-30T01:54:01;6.00;;;4.03;;
19664;SDS011;9980;51.020;7.772;2022-08-30T01:56:29;5.37;;;3.77;;
19664;SDS011;9980;51.020;7.772;2022-08-30T01:58:56;5.03;;;3.67;;
19664;SDS011;9980;51.020;7.772;2022-08-30T02:01:28;3.80;;;3.40;;
19664;SDS011;9980;51.020;7.772;2022-08-30T02:03:58;3.30;;;3.00;;
19664;SDS011;9980;51.020;7.772;2022-08-30T02:06:25;5.33;;;3.13;;
19664;SDS011;9980;51.020;7.772;2022-08-30T02:08:53;4.43;;;2.63;;
19664;SDS011;9980;51.020;7.772;2022-08-30T02:11:20;4.27;;;3.50;;
19664;SDS011;9980;51.020;7.772;2022-08-30T02:13:48;3.53;;;3.10;;
19664;SDS011;9980;51.020;7.772;2022-08-30T02:16:17;6.57;;;3.37;;
19664;SDS011;9980;51.020;7.772;2022-08-30T02:18:52;5.73;;;3.17;;
19664;SDS011;9980;51.020;7.772;2022-08-30T02:21:23;5.13;;;2.97;;
19664;SDS011;9980;51.020;7.772;2022-08-30T02:23:52;4.40;;;3.23;;
19664;SDS011;9980;51.020;7.772;2022-08-30T02:26:20;5.60;;;4.20;;
19664;SDS011;9980;51.020;7.772;2022-08-30T02:28:48;5.07;;;3.33;;
19664;SDS011;9980;51.020;7.772;2022-08-30T02:31:17;3.87;;;3.20;;
19664;SDS011;9980;51.020;7.772;2022-08-30T02:33:47;3.13;;;2.83;;
19664;SDS011;9980;51.020;7.772;2022-08-30T02:36:16;3.17;;;2.87;;
19664;SDS011;9980;51.020;7.772;2022-08-30T02:38:46;3.30;;;3.00;;
19664;SDS011;9980;51.020;7.772;2022-08-30T02:41:13;2.50;;;2.30;;
19664;SDS011;9980;51.020;7.772;2022-08-30T02:43:41;3.10;;;2.63;;
19664;SDS011;9980;51.020;7.772;2022-08-30T02:46:08;2.80;;;2.20;;
19664;SDS011;9980;51.020;7.772;2022-08-30T02:48:35;4.10;;;2.97;;
19664;SDS011;9980;51.020;7.772;2022-08-30T02:51:06;6.57;;;2.87;;
19664;SDS011;9980;51.020;7.772;2022-08-30T02:53:37;4.20;;;3.60;;
19664;SDS011;9980;51.020;7.772;2022-08-30T02:56:10;3.50;;;3.20;;
19664;SDS011;9980;51.020;7.772;2022-08-30T02:58:39;4.47;;;3.20;;
19664;SDS011;9980;51.020;7.772;2022-08-30T03:01:08;3.77;;;3.00;;
19664;SDS011;9980;51.020;7.772;2022-08-30T03:03:39;3.63;;;2.90;;
19664;SDS011;9980;51.020;7.772;2022-08-30T03:06:08;8.97;;;3.50;;
19664;SDS011;9980;51.020;7.772;2022-08-30T03:08:38;5.07;;;3.53;;
19664;SDS011;9980;51.020;7.772;2022-08-30T03:11:05;3.57;;;3.10;;
19664;SDS011;9980;51.020;7.772;2022-08-30T03:13:32;4.33;;;3.13;;
19664;SDS011;9980;51.020;7.772;2022-08-30T03:15:59;4.90;;;3.80;;
19664;SDS011;9980;51.020;7.772;2022-08-30T03:18:27;5.10;;;3.57;;
19664;SDS011;9980;51.020;7.772;2022-08-30T03:20:54;3.63;;;3.20;;
19664;SDS011;9980;51.020;7.772;2022-08-30T03:23:23;4.93;;;3.20;;
19664;SDS011;9980;51.020;7.772;2022-08-30T03:25:50;4.03;;;2.83;;
19664;SDS011;9980;51.020;7.772;2022-08-30T03:28:18;7.67;;;3.30;;
19664;SDS011;9980;51.020;7.772;2022-08-30T03:30:45;4.27;;;3.47;;
19664;SDS011;9980;51.020;7.772;2022-08-30T03:33:13;3.87;;;3.30;;
19664;SDS011;9980;51.020;7.772;2022-08-30T03:35:40;3.27;;;3.00;;
19664;SDS011;9980;51.020;7.772;2022-08-30T03:38:07;5.00;;;2.77;;
19664;SDS011;9980;51.020;7.772;2022-08-30T03:40:35;4.40;;;2.67;;
19664;SDS011;9980;51.020;7.772;2022-08-30T03:43:03;3.03;;;2.53;;
19664;SDS011;9980;51.020;7.772;2022-08-30T03:45:30;4.07;;;2.80;;
19664;SDS011;9980;51.020;7.772;2022-08-30T03:47:57;3.37;;;3.03;;
19664;SDS011;9980;51.020;7.772;2022-08-30T03:50:24;7.73;;;3.37;;
19664;SDS011;9980;51.020;7.772;2022-08-30T03:52:51;3.77;;;2.37;;
19664;SDS011;9980;51.020;7.772;2022-08-30T03:55:19;4.33;;;2.87;;
19664;SDS011;9980;51.020;7.772;2022-08-30T03:57:46;3.30;;;2.70;;
19664;SDS011;9980;51.020;7.772;2022-08-30T04:00:13;2.53;;;2.13;;
19664;SDS011;9980;51.020;7.772;2022-08-30T04:02:42;3.90;;;2.30;;
19664;SDS011;9980;51.020;7.772;2022-08-30T04:05:10;5.80;;;2.70;;
19664;SDS011;9980;51.020;7.772;2022-08-30T04:07:39;7.33;;;4.07;;
19664;SDS011;9980;51.020;7.772;2022-08-30T04:10:07;4.80;;;3.50;;
19664;SDS011;9980;51.020;7.772;2022-08-30T04:12:35;5.40;;;3.50;;
19664;SDS011;9980;51.020;7.772;2022-08-30T04:15:04;6.90;;;4.13;;
19664;SDS011;9980;51.020;7.772;2022-08-30T04:17:32;8.93;;;5.13;;
19664;SDS011;9980;51.020;7.772;2022-08-30T04:19:59;4.70;;;4.00;;
19664;SDS011;9980;51.020;7.772;2022-08-30T04:22:26;15.10;;;5.63;;
19664;SDS011;9980;51.020;7.772;2022-08-30T04:24:53;13.50;;;5.10;;
19664;SDS011;9980;51.020;7.772;2022-08-30T04:27:20;4.97;;;2.93;;
19664;SDS011;9980;51.020;7.772;2022-08-30T04:29:47;3.60;;;2.97;;
19664;SDS011;9980;51.020;7.772;2022-08-30T04:32:14;6.07;;;3.90;;
19664;SDS011;9980;51.020;7.772;2022-08-30T04:34:42;3.80;;;3.47;;
19664;SDS011;9980;51.020;7.772;2022-08-30T04:37:09;3.87;;;3.33;;
19664;SDS011;9980;51.020;7.772;2022-08-30T04:39:36;6.77;;;4.03;;
19664;SDS011;9980;51.020;7.772;2022-08-30T04:42:03;3.07;;;2.77;;
19664;SDS011;9980;51.020;7.772;2022-08-30T04:44:31;3.13;;;2.70;;
19664;SDS011;9980;51.020;7.772;2022-08-30T04:46:58;7.00;;;3.23;;
19664;SDS011;9980;51.020;7.772;2022-08-30T04:49:25;3.97;;;2.67;;
19664;SDS011;9980;51.020;7.772;2022-08-30T04:51:52;3.37;;;2.47;;
19664;SDS011;9980;51.020;7.772;2022-08-30T04:54:19;3.57;;;2.67;;
19664;SDS011;9980;51.020;7.772;2022-08-30T04:56:46;3.23;;;2.43;;
19664;SDS011;9980;51.020;7.772;2022-08-30T04:59:13;4.20;;;2.60;;
19664;SDS011;9980;51.020;7.772;2022-08-30T05:01:40;11.50;;;4.17;;
19664;SDS011;9980;51.020;7.772;2022-08-30T05:04:11;5.03;;;3.40;;
19664;SDS011;9980;51.020;7.772;2022-08-30T05:06:40;4.13;;;3.43;;
19664;SDS011;9980;51.020;7.772;2022-08-30T05:09:07;3.67;;;2.50;;
19664;SDS011;9980;51.020;7.772;2022-08-30T05:11:34;14.87;;;5.60;;
19664;SDS011;9980;51.020;7.772;2022-08-30T05:14:03;10.03;;;4.70;;
19664;SDS011;9980;51.020;7.772;2022-08-30T05:16:30;8.97;;;4.30;;
19664;SDS011;9980;51.020;7.772;2022-08-30T05:19:00;7.27;;;4.57;;
19664;SDS011;9980;51.020;7.772;2022-08-30T05:21:30;6.53;;;3.27;;
19664;SDS011;9980;51.020;7.772;2022-08-30T05:23:57;5.40;;;4.00;;
19664;SDS011;9980;51.020;7.772;2022-08-30T05:26:27;5.17;;;3.63;;
19664;SDS011;9980;51.020;7.772;2022-08-30T05:28:59;9.10;;;3.93;;
19664;SDS011;9980;51.020;7.772;2022-08-30T05:31:28;5.33;;;4.10;;
19664;SDS011;9980;51.020;7.772;2022-08-30T05:33:59;6.10;;;3.83;;
19664;SDS011;9980;51.020;7.772;2022-08-30T05:36:27;4.53;;;3.23;;
19664;SDS011;9980;51.020;7.772;2022-08-30T05:38:57;9.93;;;5.20;;
19664;SDS011;9980;51.020;7.772;2022-08-30T05:41:25;4.60;;;3.53;;
19664;SDS011;9980;51.020;7.772;2022-08-30T05:43:56;4.67;;;3.67;;
19664;SDS011;9980;51.020;7.772;2022-08-30T05:46:26;4.80;;;3.97;;
19664;SDS011;9980;51.020;7.772;2022-08-30T05:49:04;5.87;;;5.07;;
19664;SDS011;9980;51.020;7.772;2022-08-30T05:51:33;6.80;;;4.50;;
19664;SDS011;9980;51.020;7.772;2022-08-30T05:54:08;8.07;;;5.13;;
19664;SDS011;9980;51.020;7.772;2022-08-30T05:56:38;8.27;;;5.70;;
19664;SDS011;9980;51.020;7.772;2022-08-30T05:59:08;7.10;;;5.00;;
19664;SDS011;9980;51.020;7.772;2022-08-30T06:01:36;8.70;;;5.47;;
19664;SDS011;9980;51.020;7.772;2022-08-30T06:04:08;5.40;;;4.60;;
19664;SDS011;9980;51.020;7.772;2022-08-30T06:06:37;5.77;;;5.17;;
19664;SDS011;9980;51.020;7.772;2022-08-30T06:09:08;7.07;;;5.20;;
19664;SDS011;9980;51.020;7.772;2022-08-30T06:11:38;7.33;;;5.27;;
19664;SDS011;9980;51.020;7.772;2022-08-30T06:14:05;6.50;;;4.87;;
19664;SDS011;9980;51.020;7.772;2022-08-30T06:16:33;11.10;;;5.17;;
19664;SDS011;9980;51.020;7.772;2022-08-30T06:19:04;7.87;;;4.53;;
19664;SDS011;9980;51.020;7.772;2022-08-30T06:21:34;5.70;;;4.70;;
19664;SDS011;9980;51.020;7.772;2022-08-30T06:24:05;5.03;;;4.50;;
19664;SDS011;9980;51.020;7.772;2022-08-30T06:26:36;7.63;;;4.70;;
19664;SDS011;9980;51.020;7.772;2022-08-30T06:29:07;6.50;;;4.70;;
19664;SDS011;9980;51.020;7.772;2022-08-30T06:31:36;4.43;;;4.03;;
19664;SDS011;9980;51.020;7.772;2022-08-30T06:34:03;6.67;;;4.33;;
19664;SDS011;9980;51.020;7.772;2022-08-30T06:36:31;4.57;;;4.17;;
19664;SDS011;9980;51.020;7.772;2022-08-30T06:38:59;5.97;;;4.47;;
19664;SDS011;9980;51.020;7.772;2022-08-30T06:41:27;4.47;;;3.80;;
19664;SDS011;9980;51.020;7.772;2022-08-30T06:43:59;5.67;;;3.97;;
19664;SDS011;9980;51.020;7.772;2022-08-30T06:46:30;7.27;;;4.27;;
19664;SDS011;9980;51.020;7.772;2022-08-30T06:49:00;4.57;;;3.83;;
19664;SDS011;9980;51.020;7.772;2022-08-30T06:51:31;4.37;;;3.80;;
19664;SDS011;9980;51.020;7.772;2022-08-30T06:54:06;9.33;;;4.37;;
19664;SDS011;9980;51.020;7.772;2022-08-30T06:56:37;5.27;;;3.70;;
19664;SDS011;9980;51.020;7.772;2022-08-30T06:59:23;4.70;;;3.57;;
19664;SDS011;9980;51.020;7.772;2022-08-30T07:01:52;75.00;;;12.53;;
19664;SDS011;9980;51.020;7.772;2022-08-30T07:04:19;27.03;;;6.53;;
19664;SDS011;9980;51.020;7.772;2022-08-30T07:06:46;7.77;;;4.20;;
19664;SDS011;9980;51.020;7.772;2022-08-30T07:09:13;6.27;;;4.00;;
19664;SDS011;9980;51.020;7.772;2022-08-30T07:11:40;8.07;;;4.40;;
19664;SDS011;9980;51.020;7.772;2022-08-30T07:14:07;10.27;;;4.77;;
19664;SDS011;9980;51.020;7.772;2022-08-30T07:16:34;7.13;;;4.23;;
19664;SDS011;9980;51.020;7.772;2022-08-30T07:19:04;5.93;;;3.70;;
19664;SDS011;9980;51.020;7.772;2022-08-30T07:21:36;4.93;;;4.00;;
19664;SDS011;9980;51.020;7.772;2022-08-30T07:24:09;9.07;;;3.90;;
19664;SDS011;9980;51.020;7.772;2022-08-30T07:26:39;6.30;;;3.17;;
19664;SDS011;9980;51.020;7.772;2022-08-30T07:29:09;4.73;;;3.40;;
19664;SDS011;9980;51.020;7.772;2022-08-30T07:31:36;4.07;;;3.20;;
19664;SDS011;9980;51.020;7.772;2022-08-30T07:34:03;4.10;;;3.33;;
19664;SDS011;9980;51.020;7.772;2022-08-30T07:36:33;5.03;;;3.00;;
19664;SDS011;9980;51.020;7.772;2022-08-30T07:39:02;3.40;;;3.10;;
19664;SDS011;9980;51.020;7.772;2022-08-30T07:41:32;3.20;;;2.70;;
19664;SDS011;9980;51.020;7.772;2022-08-30T07:44:05;3.97;;;2.87;;
19664;SDS011;9980;51.020;7.772;2022-08-30T07:46:33;7.80;;;3.00;;
19664;SDS011;9980;51.020;7.772;2022-08-30T07:49:06;9.83;;;3.50;;
19664;SDS011;9980;51.020;7.772;2022-08-30T07:51:36;3.43;;;2.90;;
19664;SDS011;9980;51.020;7.772;2022-08-30T07:54:04;4.73;;;3.43;;
19664;SDS011;9980;51.020;7.772;2022-08-30T07:56:32;5.53;;;3.10;;
19664;SDS011;9980;51.020;7.772;2022-08-30T07:59:00;7.17;;;3.30;;
19664;SDS011;9980;51.020;7.772;2022-08-30T08:01:27;6.47;;;3.67;;
19664;SDS011;9980;51.020;7.772;2022-08-30T08:03:54;5.00;;;3.47;;
19664;SDS011;9980;51.020;7.772;2022-08-30T08:06:21;4.23;;;2.93;;
19664;SDS011;9980;51.020;7.772;2022-08-30T08:08:49;3.07;;;2.77;;
19664;SDS011;9980;51.020;7.772;2022-08-30T08:11:19;5.13;;;2.93;;
19664;SDS011;9980;51.020;7.772;2022-08-30T08:13:54;4.67;;;2.80;;
19664;SDS011;9980;51.020;7.772;2022-08-30T08:16:23;3.87;;;2.67;;
19664;SDS011;9980;51.020;7.772;2022-08-30T08:18:52;3.47;;;3.00;;
19664;SDS011;9980;51.020;7.772;2022-08-30T08:21:21;3.13;;;2.77;;
19664;SDS011;9980;51.020;7.772;2022-08-30T08:23:49;5.50;;;2.73;;
19664;SDS011;9980;51.020;7.772;2022-08-30T08:26:17;6.23;;;2.90;;
19664;SDS011;9980;51.020;7.772;2022-08-30T08:28:45;3.17;;;2.80;;
19664;SDS011;9980;51.020;7.772;2022-08-30T08:31:21;4.00;;;2.67;;
19664;SDS011;9980;51.020;7.772;2022-08-30T08:33:59;3.60;;;2.50;;
19664;SDS011;9980;51.020;7.772;2022-08-30T08:36:28;7.63;;;2.63;;
19664;SDS011;9980;51.020;7.772;2022-08-30T08:38:56;2.83;;;2.47;;
19664;SDS011;9980;51.020;7.772;2022-08-30T08:44:55;8.88;;;2.60;;
19664;SDS011;9980;51.020;7.772;2022-08-30T08:47:28;7.25;;;2.42;;
19664;SDS011;9980;51.020;7.772;2022-08-30T08:50:17;3.95;;;2.85;;
19664;SDS011;9980;51.020;7.772;2022-08-30T08:52:47;4.18;;;2.80;;
19664;SDS011;9980;51.020;7.772;2022-08-30T08:56:13;5.88;;;3.25;;
19664;SDS011;9980;51.020;7.772;2022-08-30T08:58:44;7.65;;;2.70;;
19664;SDS011;9980;51.020;7.772;2022-08-30T09:01:15;4.35;;;2.70;;
19664;SDS011;9980;51.020;7.772;2022-08-30T09:03:46;3.30;;;2.50;;
19664;SDS011;9980;51.020;7.772;2022-08-30T09:06:23;5.30;;;2.38;;
19664;SDS011;9980;51.020;7.772;2022-08-30T09:09:18;4.45;;;2.45;;
19664;SDS011;9980;51.020;7.772;2022-08-30T09:11:52;5.22;;;2.60;;
19664;SDS011;9980;51.020;7.772;2022-08-30T09:14:21;4.93;;;2.38;;
19664;SDS011;9980;51.020;7.772;2022-08-30T09:16:57;5.55;;;2.03;;
19664;SDS011;9980;51.020;7.772;2022-08-30T09:19:41;4.22;;;1.95;;
19664;SDS011;9980;51.020;7.772;2022-08-30T09:22:30;2.60;;;2.15;;
19664;SDS011;9980;51.020;7.772;2022-08-30T09:25:08;3.83;;;1.90;;
19664;SDS011;9980;51.020;7.772;2022-08-30T09:28:10;2.80;;;1.95;;
19664;SDS011;9980;51.020;7.772;2022-08-30T09:30:57;4.18;;;2.33;;
19664;SDS011;9980;51.020;7.772;2022-08-30T09:33:37;5.07;;;2.22;;
19664;SDS011;9980;51.020;7.772;2022-08-30T09:36:26;2.83;;;2.20;;
19664;SDS011;9980;51.020;7.772;2022-08-30T09:38:58;3.83;;;2.22;;
19664;SDS011;9980;51.020;7.772;2022-08-30T09:41:42;6.07;;;2.85;;
19664;SDS011;9980;51.020;7.772;2022-08-30T09:49:30;3.83;;;1.90;;
19664;SDS011;9980;51.020;7.772;2022-08-30T09:52:31;2.47;;;2.15;;
19664;SDS011;9980;51.020;7.772;2022-08-30T10:01:21;3.53;;;1.88;;
19664;SDS011;9980;51.020;7.772;2022-08-30T10:03:59;2.90;;;2.20;;
19664;SDS011;9980;51.020;7.772;2022-08-30T10:07:02;2.97;;;2.03;;
19664;SDS011;9980;51.020;7.772;2022-08-30T10:12:56;2.75;;;1.88;;
19664;SDS011;9980;51.020;7.772;2022-08-30T10:15:37;2.45;;;2.00;;
19664;SDS011;9980;51.020;7.772;2022-08-30T10:18:17;3.22;;;2.17;;
19664;SDS011;9980;51.020;7.772;2022-08-30T10:23:46;2.55;;;1.83;;
19664;SDS011;9980;51.020;7.772;2022-08-30T10:26:48;4.38;;;2.25;;
19664;SDS011;9980;51.020;7.772;2022-08-30T10:29:42;4.55;;;2.47;;
19664;SDS011;9980;51.020;7.772;2022-08-30T10:32:19;2.88;;;2.15;;
19664;SDS011;9980;51.020;7.772;2022-08-30T10:35:14;2.78;;;2.45;;
19664;SDS011;9980;51.020;7.772;2022-08-30T10:37:57;3.85;;;1.75;;
19664;SDS011;9980;51.020;7.772;2022-08-30T10:40:37;3.58;;;2.58;;
19664;SDS011;9980;51.020;7.772;2022-08-30T10:43:30;4.10;;;2.20;;
19664;SDS011;9980;51.020;7.772;2022-08-30T10:46:24;3.95;;;2.13;;
19664;SDS011;9980;51.020;7.772;2022-08-30T10:49:43;6.07;;;3.15;;
19664;SDS011;9980;51.020;7.772;2022-08-30T10:57:35;5.70;;;2.42;;
19664;SDS011;9980;51.020;7.772;2022-08-30T11:00:09;3.28;;;2.47;;
19664;SDS011;9980;51.020;7.772;2022-08-30T11:15:12;5.80;;;2.45;;
19664;SDS011;9980;51.020;7.772;2022-08-30T11:17:59;3.17;;;2.00;;
19664;SDS011;9980;51.020;7.772;2022-08-30T11:20:46;3.90;;;2.00;;
19664;SDS011;9980;51.020;7.772;2022-08-30T11:23:25;7.47;;;2.53;;
19664;SDS011;9980;51.020;7.772;2022-08-30T11:33:46;2.67;;;2.20;;
19664;SDS011;9980;51.020;7.772;2022-08-30T11:39:10;3.53;;;1.92;;
19664;SDS011;9980;51.020;7.772;2022-08-30T11:42:28;3.05;;;2.10;;
19664;SDS011;9980;51.020;7.772;2022-08-30T11:47:58;3.92;;;2.42;;
19664;SDS011;9980;51.020;7.772;2022-08-30T11:54:27;3.15;;;2.28;;
19664;SDS011;9980;51.020;7.772;2022-08-30T11:56:56;4.32;;;2.83;;
19664;SDS011;9980;51.020;7.772;2022-08-30T11:59:45;5.63;;;2.45;;
19664;SDS011;9980;51.020;7.772;2022-08-30T12:03:25;5.38;;;2.63;;
19664;SDS011;9980;51.020;7.772;2022-08-30T12:10:51;3.78;;;2.30;;
19664;SDS011;9980;51.020;7.772;2022-08-30T12:21:13;4.05;;;2.17;;
19664;SDS011;9980;51.020;7.772;2022-08-30T12:23:53;2.65;;;2.15;;
19664;SDS011;9980;51.020;7.772;2022-08-30T12:26:43;3.58;;;2.05;;
19664;SDS011;9980;51.020;7.772;2022-08-30T12:29:19;3.45;;;2.17;;
19664;SDS011;9980;51.020;7.772;2022-08-30T12:31:53;3.78;;;2.38;;
19664;SDS011;9980;51.020;7.772;2022-08-30T12:34:32;2.65;;;1.95;;
19664;SDS011;9980;51.020;7.772;2022-08-30T12:37:19;5.82;;;2.28;;
19664;SDS011;9980;51.020;7.772;2022-08-30T12:42:36;6.70;;;2.50;;
19664;SDS011;9980;51.020;7.772;2022-08-30T12:45:16;6.03;;;2.38;;
19664;SDS011;9980;51.020;7.772;2022-08-30T12:47:48;11.02;;;3.60;;
19664;SDS011;9980;51.020;7.772;2022-08-30T12:50:23;3.20;;;2.30;;
19664;SDS011;9980;51.020;7.772;2022-08-30T12:53:09;3.13;;;2.50;;
19664;SDS011;9980;51.020;7.772;2022-08-30T12:55:49;3.58;;;2.22;;
19664;SDS011;9980;51.020;7.772;2022-08-30T13:06:48;7.57;;;3.17;;
19664;SDS011;9980;51.020;7.772;2022-08-30T13:09:22;4.15;;;2.25;;
19664;SDS011;9980;51.020;7.772;2022-08-30T13:12:00;3.97;;;2.20;;
19664;SDS011;9980;51.020;7.772;2022-08-30T13:14:34;3.83;;;2.33;;
19664;SDS011;9980;51.020;7.772;2022-08-30T13:20:03;2.92;;;2.30;;
19664;SDS011;9980;51.020;7.772;2022-08-30T13:23:28;4.30;;;2.10;;
19664;SDS011;9980;51.020;7.772;2022-08-30T13:25:37;3.65;;;2.08;;
19664;SDS011;9980;51.020;7.772;2022-08-30T13:28:05;2.88;;;2.42;;
19664;SDS011;9980;51.020;7.772;2022-08-30T13:30:33;2.85;;;2.22;;
19664;SDS011;9980;51.020;7.772;2022-08-30T13:33:02;2.65;;;2.28;;
19664;SDS011;9980;51.020;7.772;2022-08-30T13:35:29;4.97;;;2.50;;
19664;SDS011;9980;51.020;7.772;2022-08-30T13:37:58;4.38;;;2.20;;
19664;SDS011;9980;51.020;7.772;2022-08-30T13:40:27;3.58;;;2.70;;
19664;SDS011;9980;51.020;7.772;2022-08-30T13:42:55;3.50;;;2.65;;
19664;SDS011;9980;51.020;7.772;2022-08-30T13:45:24;3.55;;;2.70;;
19664;SDS011;9980;51.020;7.772;2022-08-30T13:48:07;4.45;;;2.63;;
19664;SDS011;9980;51.020;7.772;2022-08-30T13:50:37;5.45;;;2.80;;
19664;SDS011;9980;51.020;7.772;2022-08-30T13:53:04;2.90;;;2.38;;
19664;SDS011;9980;51.020;7.772;2022-08-30T13:55:35;7.15;;;2.78;;
19664;SDS011;9980;51.020;7.772;2022-08-30T13:58:03;6.28;;;2.83;;
19664;SDS011;9980;51.020;7.772;2022-08-30T14:00:31;2.90;;;2.60;;
19664;SDS011;9980;51.020;7.772;2022-08-30T14:03:03;4.30;;;2.90;;
19664;SDS011;9980;51.020;7.772;2022-08-30T14:05:31;4.93;;;2.28;;
19664;SDS011;9980;51.020;7.772;2022-08-30T14:08:23;5.53;;;2.40;;
19664;SDS011;9980;51.020;7.772;2022-08-30T14:11:11;3.15;;;2.40;;
19664;SDS011;9980;51.020;7.772;2022-08-30T14:13:44;3.60;;;2.38;;
19664;SDS011;9980;51.020;7.772;2022-08-30T14:16:32;2.10;;;1.90;;
19664;SDS011;9980;51.020;7.772;2022-08-30T14:19:03;4.25;;;2.00;;
19664;SDS011;9980;51.020;7.772;2022-08-30T14:21:33;3.65;;;2.35;;
19664;SDS011;9980;51.020;7.772;2022-08-30T14:24:01;4.65;;;2.60;;
19664;SDS011;9980;51.020;7.772;2022-08-30T14:26:36;2.63;;;2.25;;
19664;SDS011;9980;51.020;7.772;2022-08-30T14:29:17;4.03;;;2.67;;
19664;SDS011;9980;51.020;7.772;2022-08-30T14:31:47;2.72;;;2.03;;
19664;SDS011;9980;51.020;7.772;2022-08-30T14:34:15;4.15;;;2.10;;
19664;SDS011;9980;51.020;7.772;2022-08-30T14:36:44;3.78;;;2.45;;
19664;SDS011;9980;51.020;7.772;2022-08-30T14:39:13;5.57;;;2.13;;
19664;SDS011;9980;51.020;7.772;2022-08-30T14:41:49;5.60;;;2.85;;
19664;SDS011;9980;51.020;7.772;2022-08-30T14:44:20;5.18;;;2.67;;
19664;SDS011;9980;51.020;7.772;2022-08-30T14:46:49;9.48;;;2.50;;
19664;SDS011;9980;51.020;7.772;2022-08-30T14:49:18;6.00;;;2.55;;
19664;SDS011;9980;51.020;7.772;2022-08-30T14:51:46;2.25;;;2.00;;
19664;SDS011;9980;51.020;7.772;2022-08-30T14:54:15;6.25;;;2.60;;
19664;SDS011;9980;51.020;7.772;2022-08-30T14:56:53;5.47;;;2.33;;
19664;SDS011;9980;51.020;7.772;2022-08-30T14:59:21;3.30;;;2.47;;
19664;SDS011;9980;51.020;7.772;2022-08-30T15:01:48;4.95;;;2.30;;
19664;SDS011;9980;51.020;7.772;2022-08-30T15:04:16;2.55;;;2.33;;
19664;SDS011;9980;51.020;7.772;2022-08-30T15:06:47;3.28;;;2.28;;
19664;SDS011;9980;51.020;7.772;2022-08-30T15:09:15;3.55;;;2.83;;
19664;SDS011;9980;51.020;7.772;2022-08-30T15:11:52;4.90;;;2.65;;
19664;SDS011;9980;51.020;7.772;2022-08-30T15:14:24;4.47;;;2.70;;
19664;SDS011;9980;51.020;7.772;2022-08-30T15:16:53;5.03;;;2.53;;
19664;SDS011;9980;51.020;7.772;2022-08-30T15:19:21;4.97;;;2.67;;
19664;SDS011;9980;51.020;7.772;2022-08-30T15:21:49;3.42;;;2.30;;
19664;SDS011;9980;51.020;7.772;2022-08-30T15:24:18;4.20;;;2.70;;
19664;SDS011;9980;51.020;7.772;2022-08-30T15:26:55;4.03;;;2.60;;
19664;SDS011;9980;51.020;7.772;2022-08-30T15:29:25;3.53;;;2.67;;
19664;SDS011;9980;51.020;7.772;2022-08-30T15:31:56;2.95;;;2.20;;
19664;SDS011;9980;51.020;7.772;2022-08-30T15:34:24;3.97;;;2.35;;
19664;SDS011;9980;51.020;7.772;2022-08-30T15:36:53;3.55;;;2.45;;
19664;SDS011;9980;51.020;7.772;2022-08-30T15:39:21;4.80;;;2.30;;
19664;SDS011;9980;51.020;7.772;2022-08-30T15:41:50;6.28;;;2.63;;
19664;SDS011;9980;51.020;7.772;2022-08-30T15:44:23;4.72;;;2.42;;
19664;SDS011;9980;51.020;7.772;2022-08-30T15:46:51;3.08;;;2.20;;
19664;SDS011;9980;51.020;7.772;2022-08-30T15:49:20;3.65;;;2.70;;
19664;SDS011;9980;51.020;7.772;2022-08-30T15:51:49;3.42;;;2.25;;
19664;SDS011;9980;51.020;7.772;2022-08-30T15:54:20;12.45;;;3.10;;
19664;SDS011;9980;51.020;7.772;2022-08-30T15:56:49;4.18;;;2.25;;
19664;SDS011;9980;51.020;7.772;2022-08-30T15:59:25;3.80;;;2.30;;
19664;SDS011;9980;51.020;7.772;2022-08-30T16:01:56;6.90;;;2.70;;
19664;SDS011;9980;51.020;7.772;2022-08-30T16:04:24;4.05;;;2.75;;
19664;SDS011;9980;51.020;7.772;2022-08-30T16:06:53;3.55;;;2.03;;
19664;SDS011;9980;51.020;7.772;2022-08-30T16:09:20;3.47;;;2.58;;
19664;SDS011;9980;51.020;7.772;2022-08-30T16:11:48;4.35;;;2.45;;
19664;SDS011;9980;51.020;7.772;2022-08-30T16:14:15;2.83;;;2.55;;
19664;SDS011;9980;51.020;7.772;2022-08-30T16:16:43;3.38;;;2.53;;
19664;SDS011;9980;51.020;7.772;2022-08-30T16:19:13;3.78;;;2.45;;
19664;SDS011;9980;51.020;7.772;2022-08-30T16:21:40;4.15;;;2.10;;
19664;SDS011;9980;51.020;7.772;2022-08-30T16:24:10;5.63;;;2.78;;
19664;SDS011;9980;51.020;7.772;2022-08-30T16:26:39;2.90;;;2.60;;
19664;SDS011;9980;51.020;7.772;2022-08-30T16:29:08;4.13;;;2.53;;
19664;SDS011;9980;51.020;7.772;2022-08-30T16:31:40;2.50;;;2.30;;
19664;SDS011;9980;51.020;7.772;2022-08-30T16:34:10;4.82;;;2.88;;
19664;SDS011;9980;51.020;7.772;2022-08-30T16:36:39;6.72;;;2.50;;
19664;SDS011;9980;51.020;7.772;2022-08-30T16:39:07;2.75;;;2.40;;
19664;SDS011;9980;51.020;7.772;2022-08-30T16:41:35;5.13;;;2.80;;
19664;SDS011;9980;51.020;7.772;2022-08-30T16:44:04;2.80;;;2.60;;
19664;SDS011;9980;51.020;7.772;2022-08-30T16:46:33;3.95;;;3.00;;
19664;SDS011;9980;51.020;7.772;2022-08-30T16:49:01;4.88;;;2.70;;
19664;SDS011;9980;51.020;7.772;2022-08-30T16:51:34;3.25;;;2.60;;
19664;SDS011;9980;51.020;7.772;2022-08-30T16:54:04;3.85;;;2.90;;
19664;SDS011;9980;51.020;7.772;2022-08-30T16:56:33;5.95;;;3.15;;
19664;SDS011;9980;51.020;7.772;2022-08-30T16:59:01;3.72;;;2.55;;